Latest Weather Observations for Blackall

IDQ60801

Issued at 10:12 pm EST Friday 15 November 2019 (issued every 10 minutes, with the page automatically refreshed every 10 minutes)

About weather observations | Map of weather stations | Latest weather observations for QLD | Other Formats
Station Details ID: 036034 Name: BLACKALL AIRPORT Lat: -24.43 Lon: 145.43 Height: 281.3 m
Data from the previous 72 hours. | See also: Recent months at Blackall
Date/Time
EST
Temp
°C
App
Temp
°C
Dew
Point
°C
Rel
Hum
%
Delta-T
°C
Wind Press
QNH
hPa
Press
MSL
hPa
Rain since
9am
mm
Dir  Spd
km/h
Gust
km/h
Spd
kts
Gust
kts
15/10:00pm 25.7 22.2 3.6 24 11.1 SSW 11 13 6 7 1012.7 1010.9 0.0
15/09:30pm 24.3 21.5 5.1 29 9.8 SSW 9 13 5 7 1012.6 1010.8 0.0
15/09:00pm 26.1 23.6 4.6 25 11.0 SSW 7 9 4 5 1012.1 1010.3 0.0
15/08:30pm 27.2 24.5 3.7 22 11.9 SW 7 9 4 5 1011.8 1010.0 0.0
15/08:00pm 28.5 25.4 3.4 20 12.8 SW 9 9 5 5 1011.6 1009.8 0.0
15/07:30pm 29.7 26.3 2.1 17 13.8 SW 9 11 5 6 1011.1 1009.3 0.0
15/07:00pm 30.9 27.2 2.2 16 14.5 SW 11 13 6 7 1010.7 1008.8 0.0
15/06:30pm 33.0 29.2 2.0 14 15.8 SW 11 15 6 8 1010.3 1008.5 0.0
15/06:00pm 34.4 29.7 0.9 12 17.0 SW 15 24 8 13 1010.0 1008.2 0.0
15/05:30pm 35.0 31.5 3.5 14 16.7 WSW 11 19 6 10 1009.7 1007.9 0.0
15/05:00pm 35.3 30.3 3.8 14 16.8 SW 19 28 10 15 1009.5 1007.7 0.0
15/04:30pm 35.9 32.9 4.2 14 17.0 W 9 19 5 10 1009.4 1007.6 0.0
15/04:00pm 36.0 31.7 3.3 13 17.4 WSW 15 22 8 12 1009.5 1007.7 0.0
15/03:30pm 36.1 32.0 2.2 12 17.7 W 13 24 7 13 1009.5 1007.7 0.0
15/03:00pm 36.3 32.2 4.6 14 17.2 NW 15 24 8 13 1009.7 1007.9 0.0
15/02:30pm 35.2 31.4 5.6 16 16.2 N 15 22 8 12 1010.0 1008.2 0.0
15/02:00pm 35.3 31.9 5.7 16 16.2 NW 13 26 7 14 1010.5 1008.6 0.0
15/01:30pm 35.5 33.4 8.3 19 15.5 W 9 17 5 9 1010.9 1009.1 0.0
15/01:00pm 34.8 33.0 7.0 18 15.5 WNW 6 20 3 11 1011.4 1009.6 0.0
15/12:30pm 33.9 32.3 7.8 20 14.7 NNE 6 13 3 7 1011.9 1010.1 0.0
15/12:00pm 32.8 30.9 7.6 21 14.1 NW 7 15 4 8 1012.3 1010.5 0.0
15/11:30am 33.4 31.2 9.4 23 13.8 N 11 19 6 10 1012.7 1010.9 0.0
15/11:00am 31.4 29.5 6.5 21 13.6 NNW 6 15 3 8 1013.2 1011.4 0.0
15/10:30am 30.7 28.3 7.2 23 12.9 N 9 13 5 7 1013.5 1011.7 0.0
15/10:00am 29.8 26.8 7.7 25 12.2 N 13 20 7 11 1013.8 1012.0 0.0
15/09:30am 28.7 26.1 7.9 27 11.4 ENE 11 19 6 10 1014.0 1012.3 0.0
15/09:00am 27.6 23.9 4.6 23 11.9 ENE 13 19 7 10 1014.3 1012.5 0.0
15/08:30am 26.9 22.5 2.7 21 12.0 E 15 19 8 10 1014.2 1012.4 0.0
15/08:00am 25.3 19.9 -1.5 17 12.2 ESE 17 24 9 13 1014.0 1012.3 0.0
15/07:30am 24.3 18.2 -4.0 15 12.2 SE 19 28 10 15 1013.8 1012.0 0.0
15/07:00am 21.5 16.1 -4.5 17 10.8 SSE 15 22 8 12 1013.8 1012.0 0.0
15/06:30am 20.0 14.5 -5.8 17 10.3 SSE 15 20 8 11 1013.6 1011.8 0.0
15/06:00am 18.7 13.9 -6.1 18 9.7 SSE 11 15 6 8 1013.4 1011.6 0.0
15/05:30am 18.1 12.9 -6.6 18 9.5 SSE 13 17 7 9 1013.0 1011.2 0.0
15/05:00am 18.1 12.9 -6.6 18 9.5 SSE 13 17 7 9 1012.7 1010.9 0.0
15/04:30am 18.7 13.4 -6.8 17 9.8 SSE 13 17 7 9 1012.5 1010.7 0.0
15/04:00am 18.1 13.2 -6.6 18 9.5 S 11 15 6 8 1012.3 1010.5 0.0
15/03:30am 18.4 13.1 -7.1 17 9.7 SSE 13 17 7 9 1012.4 1010.6 0.0
15/03:00am 18.8 13.5 -7.5 16 10.0 SSE 13 17 7 9 1012.4 1010.6 0.0
15/02:30am 19.0 13.7 -7.4 16 10.1 S 13 15 7 8 1012.3 1010.5 0.0
15/02:00am 19.3 13.9 -7.9 15 10.3 S 13 17 7 9 1012.4 1010.6 0.0
15/01:30am 19.6 14.6 -7.7 15 10.4 S 11 17 6 9 1012.4 1010.6 0.0
15/01:00am 19.3 14.3 -7.9 15 10.3 S 11 15 6 8 1012.6 1010.8 0.0
15/12:30am 20.0 15.4 -8.3 14 10.7 SSE 9 13 5 7 1013.0 1011.2 0.0
15/12:00am 20.6 15.9 -8.7 13 11.1 S 9 13 5 7 1013.2 1011.4 0.0
 
Date/Time
EST
Temp
°C
App
Temp
°C
Dew
Point
°C
Rel
Hum
%
Delta-T
°C
Wind Press
QNH
hPa
Press
MSL
hPa
Rain since
9am
mm
Dir  Spd
km/h
Gust
km/h
Spd
kts
Gust
kts
14/11:30pm 21.4 16.3 -9.1 12 11.6 S 11 15 6 8 1013.3 1011.5 0.0
14/11:00pm 22.8 17.2 -10.4 10 12.5 S 13 15 7 8 1013.4 1011.6 0.0
14/10:30pm 23.4 17.9 -9.9 10 12.7 S 13 17 7 9 1013.4 1011.6 0.0
14/10:00pm 24.0 18.5 -9.5 10 13.0 S 13 19 7 10 1013.3 1011.5 0.0
14/09:30pm 25.2 19.3 -9.9 9 13.6 S 15 20 8 11 1013.0 1011.2 0.0
14/09:00pm 25.7 19.9 -8.2 10 13.7 SSW 15 20 8 11 1012.8 1011.0 0.0
14/08:30pm 24.9 19.8 -5.4 13 12.8 SSW 13 15 7 8 1012.5 1010.7 0.0
14/08:00pm 25.5 20.4 -4.9 13 13.0 SSW 13 15 7 8 1012.4 1010.6 0.0
14/07:30pm 26.3 21.7 -4.3 13 13.3 SSW 11 13 6 7 1012.1 1010.3 0.0
14/07:00pm 28.2 23.4 -6.3 10 14.7 SSW 11 13 6 7 1012.0 1010.2 0.0
14/06:30pm 29.9 25.1 -6.4 9 15.7 SSW 11 13 6 7 1011.8 1010.0 0.0
14/06:00pm 31.4 26.1 -6.8 8 16.6 SSW 13 19 7 10 1011.7 1009.9 0.0
14/05:30pm 32.1 27.7 -6.3 8 16.9 SSW 9 15 5 8 1011.5 1009.7 0.0
14/05:00pm 32.8 27.6 -5.7 8 17.3 SW 13 19 7 10 1011.5 1009.7 0.0
14/04:30pm 32.8 28.0 -5.7 8 17.3 SSW 11 24 6 13 1011.5 1009.7 0.0
14/04:00pm 33.0 28.8 -4.0 9 17.1 SSE 9 19 5 10 1011.6 1009.8 0.0
14/03:30pm 32.7 28.2 -2.9 10 16.7 SSW 11 19 6 10 1011.9 1010.1 0.0
14/03:00pm 32.2 26.8 -4.6 9 16.7 SE 15 20 8 11 1012.2 1010.4 0.0
14/02:30pm 32.0 27.1 -3.4 10 16.4 ESE 13 20 7 11 1012.4 1010.6 0.0
14/02:00pm 32.5 28.6 -1.7 11 16.4 SSE 9 19 5 10 1012.8 1011.0 0.0
14/01:30pm 31.4 26.5 -3.8 10 16.1 SE 13 24 7 13 1013.4 1011.6 0.0
14/01:00pm 31.4 26.1 -3.8 10 16.1 SE 15 22 8 12 1013.9 1012.1 0.0
14/12:30pm 30.7 24.9 -4.4 10 15.8 ESE 17 30 9 16 1014.5 1012.7 0.0
14/12:00pm 30.0 24.0 -6.3 9 15.7 SE 17 30 9 16 1015.0 1013.2 0.0
14/11:30am 29.9 24.1 -5.0 10 15.5 SE 17 28 9 15 1015.5 1013.7 0.0
14/11:00am 28.9 22.0 -5.7 10 15.0 SE 22 32 12 17 1015.9 1014.1 0.0
14/10:30am 27.9 20.7 -5.2 11 14.4 SE 24 33 13 18 1016.4 1014.6 0.0
14/10:00am 27.0 19.4 -5.9 11 14.0 SE 26 41 14 22 1016.7 1014.9 0.0
14/09:30am 25.8 18.0 -8.1 10 13.7 SE 26 39 14 21 1017.0 1015.2 0.0
14/09:00am 25.8 17.8 -5.7 12 13.3 SE 28 37 15 20 1017.1 1015.3 0.0
14/08:30am 24.5 16.5 -5.7 13 12.6 SE 28 39 15 21 1017.1 1015.3 0.0
14/08:00am 23.8 16.5 -6.2 13 12.3 SE 24 33 13 18 1017.0 1015.2 0.0
14/07:30am 22.4 14.7 -6.4 14 11.6 ESE 26 37 14 20 1016.8 1015.0 0.0
14/07:00am 20.6 14.4 -5.3 17 10.5 SE 19 28 10 15 1016.7 1014.9 0.0
14/06:30am 19.2 12.8 -7.2 16 10.2 SSE 19 28 10 15 1016.3 1014.5 0.0
14/06:00am 18.6 12.6 -6.9 17 9.8 SSE 17 22 9 12 1016.1 1014.3 0.0
14/05:30am 18.6 12.5 -7.7 16 9.9 SSE 17 24 9 13 1015.6 1013.8 0.0
14/05:00am 18.6 12.5 -7.7 16 9.9 SSE 17 26 9 14 1015.4 1013.6 0.0
14/04:30am 18.8 13.1 -7.5 16 10.0 SSE 15 22 8 12 1015.3 1013.5 0.0
14/04:00am 19.0 13.3 -7.4 16 10.1 SSE 15 20 8 11 1015.1 1013.3 0.0
14/03:30am 19.2 13.9 -7.2 16 10.2 SSE 13 17 7 9 1015.1 1013.3 0.0
14/03:00am 20.2 14.4 -8.1 14 10.8 SSE 15 22 8 12 1014.7 1012.9 0.0
14/02:30am 21.1 14.9 -8.4 13 11.3 SSE 17 20 9 11 1014.6 1012.8 0.0
14/02:00am 21.8 15.6 -8.8 12 11.7 SSE 17 24 9 13 1014.2 1012.4 0.0
14/01:30am 22.3 16.1 -9.5 11 12.1 SSE 17 22 9 12 1014.4 1012.6 0.0
14/01:00am 22.6 16.4 -9.3 11 12.2 SSE 17 24 9 13 1014.4 1012.6 0.0
14/12:30am 22.3 16.4 -9.5 11 12.1 S 15 20 8 11 1014.5 1012.7 0.0
14/12:00am 22.9 17.1 -9.1 11 12.3 S 15 24 8 13 1014.7 1012.9 0.0
 
Date/Time
EST
Temp
°C
App
Temp
°C
Dew
Point
°C
Rel
Hum
%
Delta-T
°C
Wind Press
QNH
hPa
Press
MSL
hPa
Rain since
9am
mm
Dir  Spd
km/h
Gust
km/h
Spd
kts
Gust
kts
13/11:30pm 23.4 17.6 -8.7 11 12.5 S 15 20 8 11 1014.7 1012.9 0.0
13/11:00pm 24.4 18.2 -9.1 10 13.1 S 17 24 9 13 1014.6 1012.8 0.0
13/10:30pm 25.3 19.1 -8.5 10 13.5 S 17 24 9 13 1014.4 1012.6 0.0
13/10:00pm 26.3 19.8 -7.7 10 13.9 S 19 24 10 13 1014.3 1012.5 0.0
13/09:30pm 27.0 20.6 -4.8 12 13.8 S 20 30 11 16 1013.8 1012.0 0.0
13/09:00pm 27.4 21.5 -2.4 14 13.6 S 19 26 10 14 1013.4 1011.6 0.0
13/08:30pm 28.2 22.4 -1.8 14 13.9 S 19 28 10 15 1012.9 1011.1 0.0
13/08:00pm 28.5 23.6 -0.6 15 13.8 SSW 15 20 8 11 1012.5 1010.7 0.0
13/07:30pm 29.4 23.7 -0.9 14 14.4 SSW 19 24 10 13 1012.2 1010.4 0.0
13/07:00pm 30.4 24.7 -1.1 13 15.0 SSW 19 24 10 13 1011.7 1009.9 0.0
13/06:30pm 31.6 25.6 -1.2 12 15.7 SSW 20 28 11 15 1011.2 1009.4 0.0
13/06:00pm 32.9 26.9 -2.7 10 16.8 SSW 19 32 10 17 1010.9 1009.1 0.0
13/05:30pm 33.9 28.4 -2.0 10 17.3 SSW 17 28 9 15 1010.6 1008.7 0.0
13/05:00pm 34.7 29.3 -1.4 10 17.6 SSW 17 22 9 12 1010.3 1008.5 0.0
13/04:30pm 34.6 29.6 -1.4 10 17.6 S 15 30 8 16 1010.3 1008.5 0.0
13/04:00pm 34.6 29.6 1.1 12 17.0 S 17 26 9 14 1010.2 1008.4 0.0
13/03:30pm 34.5 30.2 3.1 14 16.5 S 15 28 8 15 1010.5 1008.6 0.0
13/03:00pm 34.2 31.4 2.9 14 16.3 ENE 7 17 4 9 1010.7 1008.8 0.0
13/02:30pm 33.6 29.4 1.4 13 16.3 S 13 19 7 10 1011.2 1009.4 0.0
13/02:00pm 34.1 30.1 2.8 14 16.3 SSW 13 20 7 11 1011.7 1009.9 0.0
13/01:30pm 33.6 30.1 3.4 15 15.8 SSW 11 19 6 10 1012.2 1010.4 0.0
13/01:00pm 32.9 30.2 3.8 16 15.3 ENE 7 13 4 7 1012.6 1010.8 0.0
13/12:30pm 32.6 28.2 2.6 15 15.4 SSE 15 24 8 13 1013.1 1011.3 0.0
13/12:00pm 32.1 28.1 3.1 16 15.0 ESE 13 19 7 10 1013.6 1011.8 0.0
13/11:30am 31.2 26.9 3.3 17 14.4 S 15 24 8 13 1014.2 1012.4 0.0
13/11:00am 30.7 26.3 2.9 17 14.2 ESE 15 22 8 12 1014.7 1012.9 0.0
13/10:30am 30.5 26.0 4.3 19 13.7 SE 17 26 9 14 1015.1 1013.3 0.0
13/10:00am 29.2 25.0 4.0 20 13.0 SE 15 24 8 13 1015.2 1013.4 0.0
13/09:30am 28.9 24.3 3.7 20 12.9 SE 17 22 9 12 1015.3 1013.5 0.0
13/09:00am 28.4 23.6 4.6 22 12.3 SE 19 24 10 13 1015.5 1013.7 0.0
13/08:30am 27.9 23.0 4.2 22 12.2 ESE 19 28 10 15 1015.5 1013.7 0.0
13/08:00am 27.1 21.5 3.6 22 11.9 ESE 22 30 12 16 1015.7 1013.9 0.0
13/07:30am 26.4 21.4 3.6 23 11.5 SE 19 24 10 13 1015.7 1013.9 0.0
13/07:00am 25.5 21.0 4.0 25 10.8 ESE 17 22 9 12 1015.2 1013.4 0.0
13/06:30am 24.5 20.3 5.8 30 9.7 SE 17 24 9 13 1015.0 1013.2 0.0
13/06:00am 22.9 20.0 8.2 39 7.9 SE 13 15 7 8 1014.3 1012.5 0.0
13/05:30am 22.2 19.7 8.3 41 7.4 S 11 17 6 9 1013.4 1011.6 0.0
13/05:00am 22.4 20.2 7.8 39 7.7 NNE 9 13 5 7 1012.9 1011.1 0.0
13/04:30am 24.1 21.1 7.7 35 8.8 NNE 13 20 7 11 1012.6 1010.8 0.0
13/04:00am 23.0 21.8 7.9 38 8.0 NE 4 9 2 5 1012.5 1010.7 0.0
13/03:30am 20.0 18.8 9.6 51 5.6 ESE 6 26 3 14 1011.4 1009.6 0.0
13/03:00am 20.1 20.1 9.7 51 5.6 CALM 0 0 0 0 1010.9 1009.1 0.0
13/02:30am 20.6 20.4 9.2 48 6.1 CALM 0 0 0 0 1010.8 1008.9 0.0
13/02:00am 20.7 20.6 9.6 49 6.0 CALM 0 0 0 0 1010.8 1008.9 0.0
13/01:30am 21.7 21.0 9.9 47 6.5 N 4 6 2 3 1011.1 1009.3 0.0
13/01:00am 23.1 21.6 9.1 41 7.6 N 7 11 4 6 1011.4 1009.6 0.0
13/12:30am 23.5 21.6 7.6 36 8.4 N 7 9 4 5 1011.6 1009.8 0.0
13/12:00am 23.7 22.1 7.8 36 8.5 NNE 6 7 3 4 1011.9 1010.1 0.0
 
Date/Time
EST
Temp
°C
App
Temp
°C
Dew
Point
°C
Rel
Hum
%
Delta-T
°C
Wind Press
QNH
hPa
Press
MSL
hPa
Rain since
9am
mm
Dir  Spd
km/h
Gust
km/h
Spd
kts
Gust
kts
12/11:30pm 24.6 22.3 7.3 33 9.2 N 9 11 5 6 1012.0 1010.2 0.0
12/11:00pm 25.4 22.6 7.1 31 9.7 NNE 11 13 6 7 1012.0 1010.2 0.0
12/10:30pm 25.6 23.0 6.3 29 10.1 NNE 9 11 5 6 1012.3 1010.5 0.0

Other formats

Comma delimited format used in spreadsheet applications
http://www.bom.gov.au/fwo/IDQ60801/IDQ60801.95351.axf

JavaScript Object Notation format (JSON) in row-major order
http://www.bom.gov.au/fwo/IDQ60801/IDQ60801.95351.json

Data quality

Most of these data are generated automatically and are frequently updated. Quality checks on data are not normally performed. It is possible for incorrect values to appear. Refer to information at About Latest Weather Observations and please check the disclaimer before using these data.